Time;durP1;ratioP1;P1;durP2;ratioP2;P2;SDS_P1;SDS_P2;PMS_P1;PMS_P2;Temp;Humidity;BMP_temperature;BMP_pressure;BME280_temperature;BME280_humidity;BME280_pressure;Samples;Min_cycle;Max_cycle;Signal;HPM_P1;HPM_P2
2023/04/28 00:01:31;;;;;;;17.13;11.35;;;6.60;99.90;;;;;;5009681;28;20055;-78
2023/04/28 00:03:57;;;;;;;16.65;11.48;;;6.60;99.90;;;;;;4976663;28;20041;-79
2023/04/28 00:06:23;;;;;;;18.65;12.40;;;6.60;99.90;;;;;;4993525;28;20054;-78
2023/04/28 00:08:49;;;;;;;17.80;12.15;;;6.60;99.90;;;;;;4993589;28;20055;-78
2023/04/28 00:11:15;;;;;;;16.98;12.23;;;6.50;99.90;;;;;;4993490;28;20051;-78
2023/04/28 00:13:40;;;;;;;17.02;11.38;;;6.50;99.90;;;;;;4993393;28;20046;-78
2023/04/28 00:16:06;;;;;;;16.10;11.70;;;6.50;99.90;;;;;;4993081;28;20137;-78
2023/04/28 00:18:32;;;;;;;15.52;10.88;;;6.50;99.90;;;;;;5009294;28;20499;-78
2023/04/28 00:20:58;;;;;;;18.02;11.75;;;6.60;99.90;;;;;;4993334;28;20051;-78
2023/04/28 00:23:24;;;;;;;15.93;11.95;;;6.60;99.90;;;;;;4993140;28;20126;-78
2023/04/28 00:25:54;;;;;;;18.85;12.35;;;6.60;99.90;;;;;;5009573;28;20480;-78
2023/04/28 00:28:20;;;;;;;19.60;12.95;;;6.60;99.90;;;;;;4993213;28;20133;-78
2023/04/28 00:30:46;;;;;;;19.05;13.35;;;6.50;99.90;;;;;;4993019;28;20058;-78
2023/04/28 00:33:12;;;;;;;17.45;13.18;;;6.50;99.90;;;;;;4993019;28;20046;-78
2023/04/28 00:35:39;;;;;;;21.17;13.43;;;6.60;99.90;;;;;;4993092;28;20392;-77
2023/04/28 00:38:05;;;;;;;19.48;13.00;;;6.50;99.90;;;;;;4992960;28;20053;-78
2023/04/28 00:40:35;;;;;;;20.48;13.13;;;6.50;99.90;;;;;;4992356;28;20047;-78
2023/04/28 00:43:01;;;;;;;20.05;13.10;;;6.60;99.90;;;;;;4992665;28;20133;-78
2023/04/28 00:45:27;;;;;;;19.02;13.50;;;6.60;99.90;;;;;;5009163;28;20054;-78
2023/04/28 00:47:55;;;;;;;16.08;12.35;;;6.70;99.90;;;;;;4992695;28;20050;-78
2023/04/28 00:50:21;;;;;;;18.92;13.38;;;6.70;99.90;;;;;;4992302;28;20059;-78
2023/04/28 00:52:47;;;;;;;19.13;13.90;;;6.70;99.90;;;;;;4992455;28;20579;-78
2023/04/28 00:55:15;;;;;;;18.55;12.70;;;6.70;99.90;;;;;;4992069;28;20086;-78
2023/04/28 00:57:41;;;;;;;20.85;14.45;;;6.70;99.90;;;;;;4992368;28;20517;-78
2023/04/28 01:00:08;;;;;;;19.67;13.80;;;6.60;99.90;;;;;;4992604;28;20451;-78
2023/04/28 01:02:35;;;;;;;21.23;13.48;;;6.60;99.90;;;;;;4992488;28;20042;-78
2023/04/28 01:05:02;;;;;;;16.55;12.68;;;6.60;99.90;;;;;;4991790;28;20051;-78
2023/04/28 01:07:28;;;;;;;19.55;13.32;;;6.60;99.90;;;;;;4992372;28;20535;-78
2023/04/28 01:09:54;;;;;;;17.42;13.10;;;6.60;99.90;;;;;;4976234;28;20129;-78
2023/04/28 01:12:20;;;;;;;17.83;12.73;;;6.60;99.90;;;;;;5008140;28;20137;-78
2023/04/28 01:14:47;;;;;;;21.55;13.23;;;6.60;99.90;;;;;;4992208;28;20129;-78
2023/04/28 01:17:13;;;;;;;17.98;12.63;;;6.60;99.90;;;;;;4992305;28;20050;-78
2023/04/28 01:19:39;;;;;;;20.38;12.57;;;6.60;99.90;;;;;;4975747;28;20130;-77
2023/04/28 01:22:05;;;;;;;19.33;12.73;;;6.60;99.90;;;;;;4975730;28;20378;-78
2023/04/28 01:24:31;;;;;;;18.25;12.80;;;6.60;99.90;;;;;;4991475;28;20130;-78
2023/04/28 01:26:57;;;;;;;17.02;12.23;;;6.60;99.90;;;;;;4992090;28;20050;-78
2023/04/28 01:29:22;;;;;;;19.92;13.25;;;6.60;99.90;;;;;;4991535;28;20126;-78
2023/04/28 01:31:48;;;;;;;17.38;12.85;;;6.60;99.90;;;;;;4975753;28;20158;-78
2023/04/28 01:34:14;;;;;;;18.42;13.02;;;6.60;99.90;;;;;;4975469;28;20047;-78
2023/04/28 01:36:40;;;;;;;18.65;13.85;;;6.60;99.90;;;;;;4991284;28;20070;-78
2023/04/28 01:39:06;;;;;;;20.08;13.65;;;6.50;99.90;;;;;;4991144;28;20065;-78
2023/04/28 01:41:34;;;;;;;18.30;13.95;;;6.50;99.90;;;;;;5007952;28;20137;-78
2023/04/28 01:44:00;;;;;;;21.52;14.27;;;6.50;99.90;;;;;;4991551;28;20109;-78
2023/04/28 01:46:26;;;;;;;21.45;14.45;;;6.50;99.90;;;;;;4975174;28;20046;-78
2023/04/28 01:48:52;;;;;;;21.50;14.68;;;6.50;99.90;;;;;;5007803;28;20051;-77
2023/04/28 01:51:17;;;;;;;20.80;15.80;;;6.40;99.90;;;;;;4991750;28;20051;-77
2023/04/28 01:53:43;;;;;;;19.35;13.93;;;6.40;99.90;;;;;;4991534;28;20051;-78
2023/04/28 01:56:09;;;;;;;21.10;14.90;;;6.40;99.90;;;;;;4991449;28;20078;-78
2023/04/28 01:58:35;;;;;;;20.13;14.55;;;6.40;99.90;;;;;;4975231;28;20101;-77
2023/04/28 02:01:00;;;;;;;19.38;14.50;;;6.40;99.90;;;;;;4991417;28;20051;-78
2023/04/28 02:03:27;;;;;;;22.65;15.98;;;6.30;99.90;;;;;;5007627;28;20138;-78
2023/04/28 02:05:53;;;;;;;21.02;15.23;;;6.30;99.90;;;;;;4990577;28;20054;-78
2023/04/28 02:08:19;;;;;;;22.55;15.77;;;6.30;99.90;;;;;;4975106;28;20109;-78
2023/04/28 02:10:44;;;;;;;20.83;15.27;;;6.30;99.90;;;;;;4974397;28;20054;-78
2023/04/28 02:13:10;;;;;;;22.13;14.65;;;6.30;99.90;;;;;;4975013;28;20137;-78
2023/04/28 02:15:43;;;;;;;21.65;16.05;;;6.30;99.90;;;;;;4990948;28;20047;-78
2023/04/28 02:18:11;;;;;;;23.65;16.95;;;6.30;99.90;;;;;;4990515;28;20053;-77
2023/04/28 02:20:39;;;;;;;22.10;16.42;;;6.20;99.90;;;;;;4991083;28;20058;-78
2023/04/28 02:23:05;;;;;;;20.88;16.05;;;6.20;99.90;;;;;;5007266;28;20060;-78
2023/04/28 02:25:31;;;;;;;23.30;16.48;;;6.20;99.90;;;;;;4991023;28;20125;-78
2023/04/28 02:27:56;;;;;;;22.40;16.27;;;6.20;99.90;;;;;;4974711;28;20050;-78
2023/04/28 02:30:22;;;;;;;24.02;16.65;;;6.10;99.90;;;;;;4990369;28;20059;-78
2023/04/28 02:32:48;;;;;;;21.33;16.15;;;6.20;99.90;;;;;;4990819;28;20051;-78
2023/04/28 02:35:14;;;;;;;22.80;16.38;;;6.20;99.90;;;;;;4990512;28;20126;-77
2023/04/28 02:37:40;;;;;;;23.73;16.60;;;6.10;99.90;;;;;;4990435;28;20402;-78
2023/04/28 02:40:06;;;;;;;23.77;16.02;;;6.30;99.90;;;;;;5006679;28;20043;-77
2023/04/28 02:42:32;;;;;;;23.17;16.98;;;6.20;99.90;;;;;;4974078;28;20061;-77
2023/04/28 02:44:58;;;;;;;21.52;16.55;;;6.20;99.90;;;;;;4974402;28;20391;-78
2023/04/28 02:47:23;;;;;;;23.05;17.13;;;6.20;99.90;;;;;;5007000;28;20043;-77
2023/04/28 02:49:49;;;;;;;22.88;17.85;;;6.20;99.90;;;;;;4989848;28;20065;-77
2023/04/28 02:52:15;;;;;;;25.15;17.65;;;6.20;99.90;;;;;;4990651;28;20069;-77
2023/04/28 02:54:41;;;;;;;24.35;17.80;;;6.10;99.90;;;;;;4989958;28;20439;-77
2023/04/28 02:57:06;;;;;;;23.80;17.42;;;6.10;99.90;;;;;;4990490;28;20039;-78
2023/04/28 02:59:32;;;;;;;23.05;16.75;;;6.10;99.90;;;;;;4990451;28;20051;-78
2023/04/28 03:01:58;;;;;;;23.23;16.88;;;6.10;99.90;;;;;;4990360;28;20077;-78
2023/04/28 03:04:24;;;;;;;21.52;16.63;;;6.10;99.90;;;;;;4989740;28;20046;-78
2023/04/28 03:06:50;;;;;;;24.77;17.35;;;6.10;99.90;;;;;;4990299;28;20442;-77
2023/04/28 03:09:15;;;;;;;23.30;16.88;;;6.00;99.90;;;;;;4973475;28;20078;-78
2023/04/28 03:11:41;;;;;;;22.83;16.88;;;6.00;99.90;;;;;;4990032;28;20047;-78
2023/04/28 03:14:07;;;;;;;21.98;17.02;;;6.00;99.90;;;;;;5006420;28;20101;-78
2023/04/28 03:16:33;;;;;;;22.50;16.67;;;6.00;99.90;;;;;;4989407;28;20145;-77
2023/04/28 03:19:01;;;;;;;24.80;16.85;;;6.00;99.90;;;;;;4973697;28;20049;-77
2023/04/28 03:21:27;;;;;;;24.38;16.40;;;6.10;99.90;;;;;;4989817;28;20402;-77
2023/04/28 03:23:53;;;;;;;26.75;16.70;;;5.90;99.90;;;;;;4989879;28;20133;-77
2023/04/28 03:26:19;;;;;;;22.52;16.33;;;5.90;99.90;;;;;;5006297;28;20050;-77
2023/04/28 03:28:45;;;;;;;22.85;16.75;;;5.90;99.90;;;;;;4989617;28;20080;-78
2023/04/28 03:31:11;;;;;;;24.25;16.73;;;5.80;99.90;;;;;;4973521;28;20550;-78
2023/04/28 03:33:36;;;;;;;22.17;15.73;;;5.80;99.90;;;;;;4989656;28;20059;-78
2023/04/28 03:36:02;;;;;;;20.52;15.77;;;5.80;99.90;;;;;;5006382;28;20473;-78
2023/04/28 03:38:28;;;;;;;22.30;15.70;;;5.90;99.90;;;;;;4989865;28;20467;-78
2023/04/28 03:40:54;;;;;;;19.75;14.55;;;5.90;99.90;;;;;;4989405;28;20042;-78
2023/04/28 03:43:19;;;;;;;20.90;15.70;;;5.90;99.90;;;;;;4973129;28;20039;-78
2023/04/28 03:45:46;;;;;;;20.08;14.73;;;5.90;99.90;;;;;;4989914;28;20514;-78
2023/04/28 03:48:12;;;;;;;21.55;15.68;;;5.90;99.90;;;;;;4989336;28;20550;-78
2023/04/28 03:50:39;;;;;;;21.85;14.63;;;6.10;99.90;;;;;;5005906;28;20051;-78
2023/04/28 03:53:05;;;;;;;21.83;15.35;;;6.10;99.90;;;;;;4989780;28;20133;-78
2023/04/28 03:55:31;;;;;;;22.27;15.55;;;6.10;99.90;;;;;;4989513;28;20555;-77
2023/04/28 03:57:57;;;;;;;23.52;15.45;;;6.10;99.90;;;;;;4989139;28;20050;-77
2023/04/28 04:00:22;;;;;;;23.25;15.52;;;6.00;99.90;;;;;;5005605;28;20061;-77
2023/04/28 04:02:48;;;;;;;23.45;15.70;;;6.00;99.90;;;;;;4973477;28;20114;-78
2023/04/28 04:05:17;;;;;;;22.25;16.02;;;6.10;99.90;;;;;;4989373;28;20086;-77
2023/04/28 04:07:42;;;;;;;22.95;16.13;;;6.00;99.90;;;;;;5005827;28;20065;-77
2023/04/28 04:10:09;;;;;;;23.52;15.95;;;6.00;99.90;;;;;;5006024;28;20054;-77
2023/04/28 04:12:34;;;;;;;21.10;15.48;;;6.00;99.90;;;;;;5005855;28;20039;-77
2023/04/28 04:15:00;;;;;;;22.48;15.48;;;6.00;99.90;;;;;;4989437;28;20134;-78
2023/04/28 04:17:26;;;;;;;22.20;15.98;;;6.00;99.90;;;;;;4972826;28;20057;-77
2023/04/28 04:19:51;;;;;;;24.65;15.88;;;6.00;99.90;;;;;;4989677;28;20047;-77
2023/04/28 04:22:17;;;;;;;21.27;15.13;;;6.10;99.90;;;;;;4989676;28;20109;-77
2023/04/28 04:24:43;;;;;;;22.08;15.68;;;6.10;99.90;;;;;;4988824;28;20046;-77
2023/04/28 04:27:09;;;;;;;20.85;15.32;;;6.10;99.90;;;;;;4989529;28;20059;-77
2023/04/28 04:29:34;;;;;;;22.38;15.70;;;6.10;99.90;;;;;;4991895;28;20490;-77
2023/04/28 04:32:03;;;;;;;20.85;15.25;;;6.20;99.90;;;;;;5009284;28;20439;-77
2023/04/28 04:34:29;;;;;;;22.80;15.70;;;6.10;99.90;;;;;;4976831;28;20109;-77
2023/04/28 04:36:55;;;;;;;23.98;16.17;;;6.20;99.90;;;;;;4976867;28;20050;-77
2023/04/28 04:39:20;;;;;;;22.15;15.65;;;6.20;99.90;;;;;;5009362;28;20055;-77
2023/04/28 04:41:46;;;;;;;21.88;15.65;;;6.20;99.90;;;;;;4992471;28;20047;-77
2023/04/28 04:44:12;;;;;;;22.08;16.05;;;6.20;99.90;;;;;;4976433;28;20047;-77
2023/04/28 04:46:37;;;;;;;20.10;14.85;;;6.20;99.90;;;;;;4992842;28;20463;-77
2023/04/28 04:49:03;;;;;;;21.35;15.38;;;6.20;99.90;;;;;;5008486;28;20066;-77
2023/04/28 04:51:29;;;;;;;21.30;15.45;;;6.20;99.90;;;;;;4976299;28;20082;-77
2023/04/28 04:53:55;;;;;;;20.17;14.02;;;6.20;99.90;;;;;;5009093;28;20125;-77
2023/04/28 04:56:21;;;;;;;23.52;15.95;;;6.30;99.90;;;;;;4992588;28;20120;-77
2023/04/28 04:58:47;;;;;;;24.35;15.27;;;6.40;99.90;;;;;;4992372;28;20051;-77
2023/04/28 05:01:13;;;;;;;20.83;15.07;;;6.40;99.90;;;;;;4992614;28;20162;-77
2023/04/28 05:03:38;;;;;;;21.00;14.63;;;6.40;99.90;;;;;;4992512;28;20046;-77
2023/04/28 05:06:04;;;;;;;20.65;15.48;;;6.40;99.90;;;;;;5008747;28;20111;-77
2023/04/28 05:08:30;;;;;;;18.88;14.75;;;6.40;99.90;;;;;;5008190;28;20053;-77
2023/04/28 05:10:56;;;;;;;20.58;14.50;;;6.50;99.90;;;;;;4992220;28;20093;-77
2023/04/28 05:13:22;;;;;;;20.63;14.60;;;6.50;99.90;;;;;;5008649;28;20050;-77
2023/04/28 05:15:48;;;;;;;22.73;15.27;;;6.50;99.90;;;;;;4992324;28;20050;-77
2023/04/28 05:18:13;;;;;;;22.02;15.15;;;6.60;99.90;;;;;;4992121;28;20387;-76
2023/04/28 05:20:39;;;;;;;19.98;14.30;;;6.70;99.90;;;;;;4992025;28;20074;-77
2023/04/28 05:23:05;;;;;;;21.02;14.35;;;6.70;99.90;;;;;;4991997;28;20054;-77
2023/04/28 05:25:31;;;;;;;20.55;13.85;;;6.80;99.90;;;;;;4992042;28;20050;-77
2023/04/28 05:27:57;;;;;;;19.67;13.80;;;6.80;99.90;;;;;;4992175;28;20387;-77
2023/04/28 05:30:23;;;;;;;20.10;14.38;;;6.80;99.90;;;;;;4992127;28;20059;-77
2023/04/28 05:32:48;;;;;;;18.65;13.63;;;6.90;99.90;;;;;;4991604;28;20047;-77
2023/04/28 05:35:14;;;;;;;19.95;13.52;;;6.90;99.90;;;;;;5008333;28;20046;-76
2023/04/28 05:37:42;;;;;;;20.05;13.23;;;7.00;99.90;;;;;;5008362;28;20054;-77
2023/04/28 05:40:08;;;;;;;19.95;12.52;;;7.00;99.90;;;;;;4990961;28;20051;-77
2023/04/28 05:42:34;;;;;;;19.67;13.18;;;7.10;99.90;;;;;;5007986;28;20046;-77
2023/04/28 05:45:01;;;;;;;18.58;12.80;;;7.10;99.90;;;;;;5008218;28;20424;-77
2023/04/28 05:47:30;;;;;;;18.70;14.02;;;7.20;99.90;;;;;;4975475;28;20046;-77
2023/04/28 05:49:55;;;;;;;18.30;12.93;;;7.20;99.90;;;;;;4991111;28;20065;-77
2023/04/28 05:52:24;;;;;;;18.25;12.45;;;7.20;99.90;;;;;;4975451;28;20483;-77
2023/04/28 05:54:50;;;;;;;19.58;13.57;;;7.30;99.90;;;;;;4991554;28;20130;-77
2023/04/28 05:57:16;;;;;;;18.58;13.40;;;7.20;99.90;;;;;;4991552;28;20487;-77
2023/04/28 05:59:42;;;;;;;19.60;13.25;;;7.30;99.90;;;;;;5007317;28;20050;-77
2023/04/28 06:02:08;;;;;;;18.67;12.82;;;7.30;99.90;;;;;;4974833;28;20070;-77
2023/04/28 06:04:33;;;;;;;17.73;11.82;;;7.30;99.90;;;;;;4991146;28;20089;-77
2023/04/28 06:06:59;;;;;;;18.42;12.25;;;7.30;99.90;;;;;;4991175;28;20133;-77
2023/04/28 06:09:25;;;;;;;19.45;12.57;;;7.30;99.90;;;;;;4990671;28;20101;-77
2023/04/28 06:11:51;;;;;;;18.83;12.35;;;7.30;99.90;;;;;;4991234;28;20082;-77
2023/04/28 06:14:16;;;;;;;19.52;12.70;;;7.30;99.90;;;;;;4991475;28;20053;-77
2023/04/28 06:16:42;;;;;;;17.52;12.50;;;7.30;99.90;;;;;;4990885;28;20105;-77
2023/04/28 06:19:08;;;;;;;18.45;12.05;;;7.30;99.90;;;;;;4990684;28;20055;-77
2023/04/28 06:21:34;;;;;;;17.83;13.15;;;7.30;99.90;;;;;;4991029;28;20450;-78
2023/04/28 06:24:00;;;;;;;20.42;13.73;;;7.30;99.90;;;;;;4990457;28;20055;-77
2023/04/28 06:26:26;;;;;;;18.38;12.85;;;7.30;99.90;;;;;;4990893;28;20095;-77
2023/04/28 06:28:52;;;;;;;19.05;13.07;;;7.30;99.90;;;;;;4990982;28;20082;-78
2023/04/28 06:31:21;;;;;;;18.75;12.75;;;7.30;99.90;;;;;;4991031;28;20047;-77
2023/04/28 06:33:46;;;;;;;19.90;13.55;;;7.30;99.90;;;;;;4990245;28;20502;-77
2023/04/28 06:36:12;;;;;;;18.27;12.88;;;7.30;99.90;;;;;;4990462;28;20074;-78
2023/04/28 06:38:41;;;;;;;16.95;12.60;;;7.40;99.90;;;;;;4990780;28;20054;-78
2023/04/28 06:41:07;;;;;;;18.45;13.25;;;7.40;99.90;;;;;;4990702;28;20137;-78
2023/04/28 06:43:36;;;;;;;20.85;13.05;;;7.40;99.90;;;;;;5006870;28;20566;-77
2023/04/28 06:46:02;;;;;;;16.50;12.05;;;7.40;99.90;;;;;;4990652;28;20077;-78
2023/04/28 06:48:28;;;;;;;16.65;11.52;;;7.40;99.90;;;;;;4990331;28;20052;-78
2023/04/28 06:50:54;;;;;;;16.00;12.10;;;7.50;99.90;;;;;;4990017;28;20138;-78
2023/04/28 06:53:20;;;;;;;16.20;12.30;;;7.50;99.90;;;;;;4958291;28;20051;-77
2023/04/28 06:55:45;;;;;;;16.80;11.93;;;7.50;99.90;;;;;;4990494;28;20050;-78
2023/04/28 06:58:11;;;;;;;17.63;11.40;;;7.50;99.90;;;;;;4974306;28;20054;-77
2023/04/28 07:00:37;;;;;;;16.52;11.60;;;7.60;99.90;;;;;;4989884;28;20410;-78
2023/04/28 07:03:03;;;;;;;16.17;11.20;;;7.60;99.90;;;;;;4989826;28;20102;-78
2023/04/28 07:05:29;;;;;;;16.17;11.32;;;7.70;99.90;;;;;;4989771;28;20053;-78
2023/04/28 07:07:55;;;;;;;14.98;11.15;;;7.60;99.90;;;;;;4990340;28;20133;-77
2023/04/28 07:10:21;;;;;;;16.17;10.27;;;7.70;99.90;;;;;;4989709;28;20054;-77
2023/04/28 07:12:48;;;;;;;15.55;10.50;;;7.80;99.90;;;;;;5006605;28;20061;-78
2023/04/28 07:15:14;;;;;;;15.45;9.70;;;7.80;99.90;;;;;;4989919;28;20384;-77
2023/04/28 07:17:40;;;;;;;13.63;9.88;;;7.80;99.90;;;;;;4989924;28;20133;-77
2023/04/28 07:20:06;;;;;;;16.25;10.85;;;7.90;99.90;;;;;;4973900;28;20137;-77
2023/04/28 07:22:32;;;;;;;13.32;10.15;;;7.90;99.90;;;;;;4989788;28;20058;-78
2023/04/28 07:24:58;;;;;;;15.68;9.05;;;7.90;99.90;;;;;;4989468;28;20047;-78
2023/04/28 07:27:23;;;;;;;13.95;9.98;;;8.00;99.90;;;;;;4990054;28;20507;-78
2023/04/28 07:29:49;;;;;;;16.70;10.30;;;8.00;99.90;;;;;;4990042;28;20109;-78
2023/04/28 07:32:15;;;;;;;16.17;10.38;;;8.10;99.90;;;;;;4990076;28;20047;-78
2023/04/28 07:34:41;;;;;;;16.15;10.75;;;8.10;99.90;;;;;;5006317;28;20394;-78
2023/04/28 07:37:06;;;;;;;13.75;10.20;;;8.20;99.90;;;;;;4973744;28;20109;-78
2023/04/28 07:39:33;;;;;;;12.85;9.77;;;8.30;99.90;;;;;;4989978;28;20088;-78
2023/04/28 07:42:01;;;;;;;14.90;10.32;;;8.40;99.90;;;;;;4973387;28;20047;-78
2023/04/28 07:44:30;;;;;;;13.93;8.60;;;8.40;99.90;;;;;;4989568;28;20610;-78
2023/04/28 07:46:57;;;;;;;13.90;9.30;;;8.50;99.90;;;;;;4989821;28;20054;-78
2023/04/28 07:49:23;;;;;;;12.73;8.32;;;8.60;99.90;;;;;;4973183;28;20058;-78
2023/04/28 07:51:54;;;;;;;15.38;8.57;;;8.60;99.90;;;;;;4989520;28;20051;-78
2023/04/28 07:54:19;;;;;;;12.95;8.43;;;8.60;99.90;;;;;;4989505;28;20050;-78
2023/04/28 07:56:45;;;;;;;14.73;9.15;;;8.60;99.90;;;;;;4973210;28;20403;-78
2023/04/28 07:59:11;;;;;;;14.82;8.32;;;8.60;99.90;;;;;;4973675;28;20047;-78
2023/04/28 08:01:37;;;;;;;13.73;8.95;;;8.60;99.90;;;;;;4989745;28;20054;-78
2023/04/28 08:04:03;;;;;;;13.88;8.50;;;8.70;99.90;;;;;;4975146;28;20133;-77
2023/04/28 08:06:29;;;;;;;15.50;9.20;;;8.80;99.90;;;;;;5009343;28;20121;-78
2023/04/28 08:08:54;;;;;;;12.68;8.77;;;8.90;99.90;;;;;;4976765;28;20105;-78
2023/04/28 08:11:21;;;;;;;13.95;9.13;;;9.10;99.90;;;;;;4977402;28;20054;-78
2023/04/28 08:13:47;;;;;;;15.32;9.18;;;9.20;99.90;;;;;;4993436;28;20059;-78
2023/04/28 08:16:14;;;;;;;13.95;9.02;;;9.30;99.90;;;;;;4993152;28;20134;-78
2023/04/28 08:18:40;;;;;;;13.65;8.65;;;9.40;99.90;;;;;;4976885;28;20121;-78
2023/04/28 08:21:06;;;;;;;15.05;9.18;;;9.40;99.90;;;;;;4993129;28;20042;-78
2023/04/28 08:23:31;;;;;;;13.63;8.55;;;9.50;99.90;;;;;;4993152;28;20042;-78
2023/04/28 08:25:57;;;;;;;14.95;8.95;;;9.60;99.90;;;;;;4992950;28;20142;-78
2023/04/28 08:28:23;;;;;;;12.13;8.48;;;9.60;99.90;;;;;;4976983;28;20046;-78
2023/04/28 08:30:49;;;;;;;12.45;8.55;;;9.70;99.90;;;;;;4977025;28;20042;-78
2023/04/28 08:33:15;;;;;;;13.10;8.75;;;9.80;99.90;;;;;;4993088;28;20380;-78
2023/04/28 08:35:41;;;;;;;13.23;8.93;;;9.90;99.90;;;;;;4976916;28;20054;-79
2023/04/28 08:38:12;;;;;;;12.85;9.23;;;10.10;99.90;;;;;;4992983;28;20046;-79
2023/04/28 08:40:38;;;;;;;13.32;9.38;;;10.20;99.90;;;;;;4993039;28;20506;-79
2023/04/28 08:43:04;;;;;;;12.88;8.50;;;10.40;99.90;;;;;;4992467;28;20050;-79
2023/04/28 08:45:32;;;;;;;12.60;8.35;;;10.70;99.90;;;;;;4992579;28;20047;-79
2023/04/28 08:47:59;;;;;;;12.55;8.70;;;10.90;99.90;;;;;;4976693;28;20058;-79
2023/04/28 08:50:27;;;;;;;12.05;8.88;;;11.00;99.90;;;;;;4992292;28;20060;-79
2023/04/28 08:52:55;;;;;;;12.27;8.68;;;11.20;99.90;;;;;;4992740;28;20396;-79
2023/04/28 08:55:22;;;;;;;13.07;8.63;;;11.30;99.90;;;;;;4992720;28;20050;-79
2023/04/28 08:57:52;;;;;;;15.38;9.38;;;11.40;99.90;;;;;;4976478;28;20054;-79
2023/04/28 09:00:18;;;;;;;11.98;8.48;;;11.40;99.90;;;;;;4976476;28;20478;-79
2023/04/28 09:02:44;;;;;;;12.02;8.63;;;11.40;99.90;;;;;;4992513;28;20093;-80
2023/04/28 09:05:11;;;;;;;12.77;8.40;;;11.30;99.90;;;;;;4960164;28;20042;-79
2023/04/28 09:07:37;;;;;;;13.10;9.20;;;11.30;99.90;;;;;;4975885;28;20062;-79
2023/04/28 09:10:17;;;;;;;12.88;8.95;;;11.20;99.90;;;;;;4992435;28;20055;-79
2023/04/28 09:12:43;;;;;;;12.27;9.15;;;11.20;99.90;;;;;;4976166;28;20054;-79
2023/04/28 09:15:10;;;;;;;12.02;8.23;;;11.20;99.90;;;;;;4991069;28;20051;-79
2023/04/28 09:17:49;;;;;;;14.80;9.32;;;11.20;99.90;;;;;;4992049;28;20057;-79
2023/04/28 09:20:22;;;;;;;12.90;9.25;;;11.20;99.90;;;;;;4975520;28;20046;-79
2023/04/28 09:22:49;;;;;;;13.10;9.32;;;11.30;99.90;;;;;;4975905;28;20116;-80
2023/04/28 09:25:15;;;;;;;13.15;9.05;;;11.40;99.90;;;;;;4992382;28;20058;-80
2023/04/28 09:27:41;;;;;;;14.38;8.75;;;11.40;99.90;;;;;;4992095;28;20055;-79
2023/04/28 09:30:08;;;;;;;15.00;9.32;;;11.50;99.90;;;;;;4992144;28;20133;-80
2023/04/28 09:32:35;;;;;;;14.05;8.68;;;11.60;99.90;;;;;;4975334;28;20541;-79
2023/04/28 09:35:03;;;;;;;12.75;9.20;;;11.80;99.90;;;;;;4991349;28;20050;-80
2023/04/28 09:37:30;;;;;;;13.98;8.90;;;11.90;99.90;;;;;;4991770;28;20047;-80
2023/04/28 09:39:57;;;;;;;16.08;9.63;;;12.00;99.90;;;;;;4991878;28;20047;-80
2023/04/28 09:42:35;;;;;;;15.23;9.05;;;12.10;99.90;;;;;;4975711;28;20054;-79
2023/04/28 09:45:06;;;;;;;15.70;10.00;;;12.10;99.90;;;;;;4991260;28;20483;-80
2023/04/28 09:47:35;;;;;;;13.02;10.20;;;12.00;99.90;;;;;;4991510;28;20073;-80
2023/04/28 09:50:08;;;;;;;11.80;8.20;;;12.00;99.90;;;;;;4991394;28;20136;-79
2023/04/28 09:52:34;;;;;;;13.10;9.30;;;12.10;99.90;;;;;;4991410;28;20402;-79
2023/04/28 09:55:10;;;;;;;14.00;9.43;;;12.10;99.90;;;;;;4974759;28;20056;-79
2023/04/28 09:57:37;;;;;;;13.13;9.68;;;12.30;99.90;;;;;;4991552;28;20047;-80
2023/04/28 10:00:06;;;;;;;11.63;9.05;;;12.40;99.90;;;;;;4991332;28;20133;-80
2023/04/28 10:02:34;;;;;;;12.13;7.97;;;12.60;99.90;;;;;;4975305;28;20047;-79
2023/04/28 10:05:01;;;;;;;13.18;9.55;;;12.80;99.90;;;;;;4991107;28;20439;-80
2023/04/28 10:07:29;;;;;;;13.13;9.15;;;12.90;99.90;;;;;;4990790;28;20094;-80
2023/04/28 10:09:55;;;;;;;12.02;8.98;;;12.90;99.90;;;;;;4975128;28;20053;-80
2023/04/28 10:12:25;;;;;;;12.48;8.98;;;13.00;99.90;;;;;;4975132;28;20050;-80
2023/04/28 10:14:55;;;;;;;12.32;8.90;;;13.00;99.90;;;;;;4974767;28;20134;-80
2023/04/28 10:17:24;;;;;;;13.35;9.80;;;13.00;99.90;;;;;;4991332;28;20125;-80
2023/04/28 10:19:52;;;;;;;13.68;8.40;;;13.00;99.90;;;;;;4991169;28;20050;-80
2023/04/28 10:22:52;;;;;;;13.88;8.73;;;13.10;99.90;;;;;;4974550;28;20418;-79
2023/04/28 10:25:31;;;;;;;9.18;6.20;;;13.20;99.90;;;;;;4991092;28;20061;-81
2023/04/28 10:27:58;;;;;;;11.35;8.68;;;13.20;99.90;;;;;;4974410;28;20201;-80
2023/04/28 10:30:27;;;;;;;11.80;7.72;;;13.20;99.90;;;;;;4991147;28;20392;-81
2023/04/28 10:33:05;;;;;;;13.82;9.07;;;13.20;99.90;;;;;;4974597;28;20061;-81
2023/04/28 10:35:31;;;;;;;13.10;9.07;;;13.40;99.90;;;;;;4990629;28;20055;-80
2023/04/28 10:38:05;;;;;;;11.80;8.77;;;13.40;99.90;;;;;;4974567;28;20078;-80
2023/04/28 10:40:33;;;;;;;12.63;9.15;;;13.50;99.90;;;;;;4990759;28;20181;-81
2023/04/28 10:42:59;;;;;;;11.68;8.95;;;13.50;99.90;;;;;;4990585;28;20062;-81
2023/04/28 10:45:55;;;;;;;15.13;9.73;;;13.60;99.90;;;;;;4990427;28;20043;-81
2023/04/28 10:48:23;;;;;;;13.65;9.63;;;13.70;99.90;;;;;;4990586;28;20078;-81
2023/04/28 10:51:08;;;;;;;13.00;9.27;;;13.80;99.90;;;;;;4989827;28;20151;-81
2023/04/28 10:53:49;;;;;;;13.10;9.40;;;14.10;99.90;;;;;;4990491;28;20047;-80
2023/04/28 10:56:22;;;;;;;14.25;9.10;;;14.20;99.90;;;;;;4990618;28;20053;-81
2023/04/28 10:58:50;;;;;;;13.05;9.40;;;14.10;99.90;;;;;;4990529;28;20047;-81
2023/04/28 11:01:33;;;;;;;14.05;10.00;;;14.10;99.90;;;;;;4990464;28;20062;-82
2023/04/28 11:04:10;;;;;;;15.68;10.48;;;14.00;99.90;;;;;;4990138;28;20046;-81
2023/04/28 11:06:42;;;;;;;13.70;9.68;;;14.00;99.90;;;;;;4990007;28;20101;-81
2023/04/28 11:09:14;;;;;;;14.48;10.13;;;14.00;99.90;;;;;;4989938;28;20553;-81
2023/04/28 11:11:58;;;;;;;12.45;9.82;;;14.00;99.90;;;;;;4990147;28;20050;-81
2023/04/28 11:14:24;;;;;;;14.60;10.27;;;13.90;99.90;;;;;;4990129;28;20058;-81
2023/04/28 11:16:52;;;;;;;16.17;10.10;;;14.00;99.90;;;;;;4990268;28;20105;-81
2023/04/28 11:19:26;;;;;;;15.63;10.82;;;13.90;99.90;;;;;;5006629;28;20086;-81
2023/04/28 11:21:54;;;;;;;13.30;10.40;;;14.00;99.90;;;;;;4990057;28;20051;-81
2023/04/28 11:24:28;;;;;;;13.50;9.88;;;14.10;99.90;;;;;;4990372;28;20046;-81
2023/04/28 11:26:57;;;;;;;12.60;10.07;;;14.20;99.90;;;;;;4989725;28;20047;-81
2023/04/28 11:29:32;;;;;;;11.98;9.25;;;14.30;99.90;;;;;;4990090;28;20058;-82
2023/04/28 11:31:58;;;;;;;12.68;9.60;;;14.40;99.90;;;;;;4989994;28;20098;-82
2023/04/28 11:34:24;;;;;;;13.57;8.52;;;14.50;99.90;;;;;;4973803;28;20491;-82
2023/04/28 11:36:53;;;;;;;11.88;9.70;;;14.40;99.90;;;;;;4989472;28;20055;-82
2023/04/28 11:39:29;;;;;;;14.27;9.45;;;14.50;99.90;;;;;;4973033;28;20062;-82
2023/04/28 11:41:56;;;;;;;13.32;9.80;;;14.50;99.90;;;;;;4973372;28;20046;-82
2023/04/28 11:44:24;;;;;;;12.63;10.27;;;14.40;99.90;;;;;;4989629;28;20511;-83
2023/04/28 11:46:56;;;;;;;13.57;9.43;;;14.40;99.90;;;;;;4989950;28;20126;-82
2023/04/28 11:49:29;;;;;;;14.38;10.13;;;14.40;99.90;;;;;;4989707;28;20058;-82
2023/04/28 11:52:06;;;;;;;13.00;9.73;;;14.50;99.90;;;;;;4989643;28;20061;-83
2023/04/28 11:54:32;;;;;;;13.15;9.43;;;14.50;99.90;;;;;;4989851;28;20137;-83
2023/04/28 11:56:59;;;;;;;12.05;8.15;;;14.60;99.90;;;;;;4989194;28;20047;-83
2023/04/28 11:59:32;;;;;;;12.75;9.20;;;14.60;99.90;;;;;;4989786;28;20054;-83
2023/04/28 12:02:01;;;;;;;12.73;9.73;;;14.50;99.90;;;;;;4989445;28;20047;-82
2023/04/28 12:04:37;;;;;;;12.07;9.70;;;14.50;99.90;;;;;;4989155;28;20046;-83
2023/04/28 12:07:05;;;;;;;14.10;9.63;;;14.60;99.90;;;;;;4989613;28;20114;-82
2023/04/28 12:09:33;;;;;;;12.60;9.23;;;14.60;99.90;;;;;;4989667;28;20047;-83
2023/04/28 12:12:01;;;;;;;12.25;9.35;;;14.70;99.90;;;;;;4973248;28;20514;-83
2023/04/28 12:14:27;;;;;;;12.15;9.07;;;14.70;99.90;;;;;;4989624;28;20372;-82
2023/04/28 12:16:53;;;;;;;14.52;8.27;;;14.70;99.90;;;;;;4989639;28;20399;-82
2023/04/28 12:19:19;;;;;;;13.32;9.35;;;14.70;99.90;;;;;;4989010;28;20051;-82
2023/04/28 12:22:05;;;;;;;13.05;9.23;;;14.60;99.90;;;;;;4973407;28;20051;-83
2023/04/28 12:24:31;;;;;;;11.90;9.05;;;14.50;99.90;;;;;;4972731;28;20054;-83
2023/04/28 12:27:31;;;;;;;13.48;9.77;;;14.50;99.90;;;;;;4989335;28;20113;-82
2023/04/28 12:29:57;;;;;;;13.05;9.25;;;14.40;99.90;;;;;;4962363;28;20411;-83
2023/04/28 12:32:44;;;;;;;13.70;10.35;;;14.30;99.90;;;;;;4989463;28;20058;-83
2023/04/28 12:35:10;;;;;;;12.65;10.20;;;14.30;99.90;;;;;;5005729;28;20054;-82
2023/04/28 12:37:37;;;;;;;13.80;10.63;;;14.30;99.90;;;;;;4989301;28;20050;-82
2023/04/28 12:40:07;;;;;;;14.30;10.48;;;14.30;99.90;;;;;;4989437;28;20051;-83